Time;durP1;ratioP1;P1;durP2;ratioP2;P2;SDS_P1;SDS_P2;PMS_P1;PMS_P2;Temp;Humidity;BMP_temperature;BMP_pressure;BME280_temperature;BME280_humidity;BME280_pressure;Samples;Min_cycle;Max_cycle;Signal;HPM_P1;HPM_P2
2022/03/31 00:00:18;;;;;;;2.05;0.40;;;;;;;-3.09;71.33;100927.91;5096387;28;20062;-77
2022/03/31 00:02:44;;;;;;;1.10;0.30;;;;;;;-3.12;70.74;100928.94;5094842;28;20036;-77
2022/03/31 00:05:09;;;;;;;1.25;0.30;;;;;;;-3.07;71.65;100947.06;5090693;28;20032;-77
2022/03/31 00:07:35;;;;;;;1.60;0.43;;;;;;;-3.13;71.47;100945.69;5096496;28;20368;-77
2022/03/31 00:10:00;;;;;;;0.45;0.30;;;;;;;-3.35;71.58;100917.41;5095381;28;20107;-77
2022/03/31 00:12:26;;;;;;;5.10;0.40;;;;;;;-3.15;71.66;100942.31;5078906;28;20105;-77
2022/03/31 00:14:52;;;;;;;0.40;0.20;;;;;;;-3.15;72.03;100944.94;5096502;28;20078;-77
2022/03/31 00:17:17;;;;;;;1.83;0.40;;;;;;;-3.13;71.79;100942.22;5096540;28;20335;-77
2022/03/31 00:19:43;;;;;;;0.85;0.40;;;;;;;-3.14;72.04;100937.94;5062384;28;20037;-76
2022/03/31 00:22:08;;;;;;;0.50;0.20;;;;;;;-3.14;71.95;100935.28;5100884;28;20416;-77
2022/03/31 00:24:34;;;;;;;2.15;0.40;;;;;;;-3.14;72.33;100940.56;5096224;28;20035;-77
2022/03/31 00:26:59;;;;;;;1.17;0.50;;;;;;;-3.13;72.09;100934.34;5093616;28;20042;-77
2022/03/31 00:29:25;;;;;;;1.08;0.35;;;;;;;-3.34;72.12;100908.56;5103208;28;20062;-77
2022/03/31 00:31:50;;;;;;;0.80;0.30;;;;;;;-3.62;72.40;100857.03;5102014;28;20115;-77
2022/03/31 00:34:17;;;;;;;2.92;0.50;;;;;;;-3.47;72.16;100886.69;5081095;28;20027;-77
2022/03/31 00:36:42;;;;;;;0.73;0.30;;;;;;;-3.17;72.41;100932.88;5095720;28;20020;-77
2022/03/31 00:41:52;;;;;;;1.77;0.30;;;;;;;-3.26;72.68;100921.19;5079834;28;20051;-77
2022/03/31 00:44:19;;;;;;;2.90;0.40;;;;;;;-3.58;72.51;100876.06;5095051;28;20050;-77
2022/03/31 00:46:52;;;;;;;1.98;0.40;;;;;;;-3.20;73.28;100939.19;5092927;28;20016;-78
2022/03/31 00:49:22;;;;;;;0.60;0.30;;;;;;;-3.23;72.94;100941.19;5107330;28;20080;-77
2022/03/31 00:51:49;;;;;;;2.45;0.60;;;;;;;-3.23;72.94;100941.19;5093149;28;20066;-77
2022/03/31 00:54:16;;;;;;;2.22;0.70;;;;;;;-3.26;73.17;100936.13;5093967;28;20035;-76
2022/03/31 00:56:42;;;;;;;2.03;0.47;;;;;;;-3.33;73.22;100943.63;5093751;28;20028;-76
2022/03/31 00:59:10;;;;;;;1.17;0.30;;;;;;;-3.55;73.52;100910.03;5094291;28;20046;-76
2022/03/31 01:01:39;;;;;;;0.70;0.25;;;;;;;-3.47;73.71;100923.53;5093731;28;20361;-77
2022/03/31 01:04:05;;;;;;;2.17;0.52;;;;;;;-3.54;73.69;100909.13;5092225;28;20434;-77
2022/03/31 01:06:32;;;;;;;1.75;0.50;;;;;;;-3.71;73.76;100891.00;5096043;28;20103;-76
2022/03/31 01:08:59;;;;;;;1.50;0.40;;;;;;;-3.47;73.86;100936.69;5077162;28;20035;-77
2022/03/31 01:11:24;;;;;;;1.15;0.50;;;;;;;-3.66;73.87;100907.31;5074977;28;20020;-77
2022/03/31 01:13:50;;;;;;;0.40;0.30;;;;;;;-3.54;74.26;100932.78;5095161;28;20200;-76
2022/03/31 01:16:16;;;;;;;1.70;0.50;;;;;;;-4.26;74.31;100814.16;5076352;28;20035;-77
2022/03/31 01:18:42;;;;;;;1.48;0.68;;;;;;;-3.57;74.45;100931.22;5095150;28;20550;-76
2022/03/31 01:21:09;;;;;;;6.10;0.47;;;;;;;-3.57;74.23;100935.63;5094238;28;20450;-77
2022/03/31 01:23:35;;;;;;;1.83;0.47;;;;;;;-3.69;74.38;100918.88;5070952;28;20056;-77
2022/03/31 01:26:01;;;;;;;2.65;0.60;;;;;;;-3.64;74.68;100927.31;5083495;28;20594;-77
2022/03/31 01:28:26;;;;;;;3.75;0.60;;;;;;;-3.65;74.30;100935.28;5086731;28;20027;-76
2022/03/31 01:30:52;;;;;;;0.40;0.30;;;;;;;-4.04;74.67;100881.84;5091817;28;20051;-76
2022/03/31 01:33:17;;;;;;;1.15;0.50;;;;;;;-3.73;74.81;100935.00;5083417;28;20028;-77
2022/03/31 01:35:43;;;;;;;3.30;0.45;;;;;;;-3.83;74.69;100911.94;5093575;28;20036;-76
2022/03/31 01:38:08;;;;;;;2.72;0.68;;;;;;;-3.70;74.84;100932.16;5093112;28;20039;-76
2022/03/31 01:40:36;;;;;;;2.33;0.60;;;;;;;-3.85;74.68;100919.09;5093577;28;20099;-77
2022/03/31 01:43:02;;;;;;;1.08;0.40;;;;;;;-3.81;74.71;100946.88;5093105;28;20051;-77
2022/03/31 01:45:27;;;;;;;2.67;0.60;;;;;;;-3.76;74.85;100937.81;5093619;28;20028;-76
2022/03/31 01:47:54;;;;;;;2.78;0.50;;;;;;;-3.89;74.58;100933.38;5091534;28;20028;-77
2022/03/31 01:50:20;;;;;;;3.63;0.40;;;;;;;-3.85;74.87;100944.53;5092444;28;20052;-77
2022/03/31 01:52:46;;;;;;;2.38;0.50;;;;;;;-4.23;75.26;100879.63;5093544;28;20032;-77
2022/03/31 01:55:11;;;;;;;3.05;0.50;;;;;;;-3.84;75.23;100948.84;5082668;28;20369;-76
2022/03/31 01:57:44;;;;;;;1.25;0.40;;;;;;;-3.81;75.18;100940.75;5073836;28;20462;-76
2022/03/31 02:00:10;;;;;;;0.93;0.40;;;;;;;-3.88;75.20;100927.16;5080122;28;20133;-77
2022/03/31 02:02:36;;;;;;;2.22;0.40;;;;;;;-3.79;75.12;100944.97;5077003;28;20063;-76
2022/03/31 02:05:01;;;;;;;1.65;0.57;;;;;;;-3.78;75.16;100938.75;5094656;28;20028;-76
2022/03/31 02:07:28;;;;;;;0.80;0.40;;;;;;;-3.78;75.24;100940.53;5092354;28;20043;-76
2022/03/31 02:09:53;;;;;;;1.90;0.30;;;;;;;-4.41;75.19;100831.75;5095210;28;20028;-77
2022/03/31 02:12:18;;;;;;;3.05;0.50;;;;;;;-3.70;75.37;100942.69;5092102;28;20028;-76
2022/03/31 02:14:44;;;;;;;2.00;0.30;;;;;;;-3.70;75.54;100942.69;5094629;28;20127;-76
2022/03/31 02:17:11;;;;;;;0.75;0.32;;;;;;;-3.73;75.54;100946.34;5098856;28;20032;-76
2022/03/31 02:19:37;;;;;;;1.98;0.40;;;;;;;-3.68;75.96;100936.34;5097408;28;20020;-77
2022/03/31 02:22:04;;;;;;;1.58;0.40;;;;;;;-3.72;76.30;100940.13;5096453;28;20028;-76
2022/03/31 02:24:30;;;;;;;1.50;0.50;;;;;;;-3.80;76.19;100938.03;5074138;28;20101;-76
2022/03/31 02:26:57;;;;;;;2.08;0.60;;;;;;;-3.84;76.24;100936.56;5094945;28;20030;-76
2022/03/31 02:29:24;;;;;;;0.70;0.30;;;;;;;-4.00;76.19;100911.41;5074101;28;20069;-76
2022/03/31 02:31:49;;;;;;;1.00;0.40;;;;;;;-3.91;76.42;100932.63;5090850;28;20121;-76
2022/03/31 02:34:16;;;;;;;1.95;0.52;;;;;;;-3.86;76.47;100933.19;5093644;28;20048;-76
2022/03/31 02:36:42;;;;;;;1.67;0.40;;;;;;;-4.85;76.07;100769.09;5094906;28;20027;-76
2022/03/31 02:39:09;;;;;;;0.98;0.50;;;;;;;-3.85;76.76;100934.84;5093773;28;20031;-77
2022/03/31 02:41:35;;;;;;;1.25;0.45;;;;;;;-3.86;76.93;100933.19;5101476;28;20032;-77
2022/03/31 02:44:04;;;;;;;2.05;0.60;;;;;;;-4.00;76.98;100903.53;5092755;28;20038;-77
2022/03/31 02:46:30;;;;;;;2.95;0.50;;;;;;;-3.91;77.08;100932.63;5087294;28;20040;-76
2022/03/31 02:48:56;;;;;;;1.40;0.50;;;;;;;-3.95;77.22;100911.94;5090900;28;20107;-76
2022/03/31 02:51:23;;;;;;;1.00;0.40;;;;;;;-3.95;77.15;100910.13;5093004;28;20035;-76
2022/03/31 02:56:33;;;;;;;1.85;0.65;;;;;;;-4.17;77.05;100886.22;5076563;28;20449;-77
2022/03/31 02:59:00;;;;;;;1.55;0.45;;;;;;;-3.99;77.49;100924.44;5095671;28;20036;-76
2022/03/31 03:01:27;;;;;;;3.40;0.50;;;;;;;-3.96;77.45;100905.00;5095332;28;20036;-76
2022/03/31 03:03:57;;;;;;;1.98;0.40;;;;;;;-3.62;77.19;100912.25;5097786;28;20024;-76
2022/03/31 03:06:23;;;;;;;5.20;0.70;;;;;;;-3.79;77.09;100881.03;5096621;28;20036;-76
2022/03/31 03:08:48;;;;;;;4.47;0.40;;;;;;;-4.12;77.66;100845.56;5098502;28;20043;-76
2022/03/31 03:11:15;;;;;;;0.68;0.47;;;;;;;-4.02;77.93;100893.09;5098103;28;20035;-76
2022/03/31 03:13:40;;;;;;;2.65;0.50;;;;;;;-3.93;78.24;100905.63;5093835;28;20031;-76
2022/03/31 03:16:08;;;;;;;7.38;0.63;;;;;;;-3.66;78.38;100910.78;5091185;28;20028;-76
2022/03/31 03:18:34;;;;;;;0.75;0.40;;;;;;;-3.58;78.08;100900.56;5094496;28;20087;-76
2022/03/31 03:21:00;;;;;;;2.42;0.43;;;;;;;-3.39;77.81;100909.84;5091516;28;20119;-76
2022/03/31 03:23:25;;;;;;;1.15;0.50;;;;;;;-3.34;78.20;100918.25;5076328;28;20067;-76
2022/03/31 03:25:52;;;;;;;4.60;0.68;;;;;;;-3.46;78.28;100898.06;5092190;28;20028;-76
2022/03/31 03:28:17;;;;;;;1.55;0.63;;;;;;;-3.32;78.20;100916.34;5074144;28;20035;-76
2022/03/31 03:30:43;;;;;;;1.73;0.50;;;;;;;-3.42;78.26;100900.34;5071520;28;20032;-76
2022/03/31 03:33:08;;;;;;;1.77;0.50;;;;;;;-3.57;78.32;100883.03;5071310;28;20035;-76
2022/03/31 03:35:34;;;;;;;1.63;0.40;;;;;;;-3.42;79.08;100913.50;5088056;28;20024;-76
2022/03/31 03:38:00;;;;;;;2.55;0.55;;;;;;;-3.55;79.20;100921.41;5093913;28;20415;-76
2022/03/31 03:40:25;;;;;;;1.10;0.60;;;;;;;-3.55;79.34;100923.19;5089250;28;20115;-76
2022/03/31 03:42:53;;;;;;;1.63;0.60;;;;;;;-3.68;79.60;100888.16;5056466;28;20028;-76
2022/03/31 03:45:19;;;;;;;1.92;0.65;;;;;;;-3.65;79.23;100888.81;5089010;28;20040;-75
2022/03/31 03:47:45;;;;;;;2.80;0.60;;;;;;;-3.43;79.51;100921.53;5089469;28;20016;-76
2022/03/31 03:50:11;;;;;;;1.98;0.47;;;;;;;-3.49;79.63;100901.75;5094084;28;20020;-76
2022/03/31 03:52:37;;;;;;;7.65;0.85;;;;;;;-3.47;79.70;100901.66;5096397;28;20056;-76
2022/03/31 03:55:03;;;;;;;1.58;0.80;;;;;;;-3.61;79.31;100879.78;5074382;28;20116;-76
2022/03/31 03:57:28;;;;;;;3.50;0.68;;;;;;;-3.35;79.89;100913.94;5092723;28;20039;-76
2022/03/31 03:59:54;;;;;;;2.35;0.77;;;;;;;-3.35;79.82;100917.41;5089577;28;20040;-76
2022/03/31 04:02:20;;;;;;;1.60;0.57;;;;;;;-3.39;79.86;100915.94;5090440;28;20417;-76
2022/03/31 04:04:46;;;;;;;1.50;0.70;;;;;;;-3.38;80.24;100925.53;5057913;28;20051;-76
2022/03/31 04:07:11;;;;;;;2.05;0.60;;;;;;;-3.48;79.78;100915.72;5071895;28;20028;-76
2022/03/31 04:09:36;;;;;;;2.20;0.60;;;;;;;-3.44;79.84;100918.06;5089655;28;20016;-76
2022/03/31 04:12:02;;;;;;;1.27;0.70;;;;;;;-3.53;79.99;100902.91;5095591;28;20032;-76
2022/03/31 04:14:28;;;;;;;2.40;0.50;;;;;;;-3.49;79.87;100920.16;5094381;28;20455;-76
2022/03/31 04:16:55;;;;;;;2.08;0.50;;;;;;;-3.51;79.69;100921.19;5094774;28;20085;-76
2022/03/31 04:19:21;;;;;;;2.03;0.70;;;;;;;-3.51;82.08;100924.66;5061986;28;20091;-76
2022/03/31 04:21:46;;;;;;;1.40;0.70;;;;;;;-3.55;82.63;100915.31;5092474;28;20453;-76
2022/03/31 04:24:11;;;;;;;1.17;0.60;;;;;;;-3.53;83.66;100923.13;5094916;28;20414;-76
2022/03/31 04:26:37;;;;;;;1.75;0.80;;;;;;;-3.52;83.09;100917.72;5093740;28;20032;-77
2022/03/31 04:29:02;;;;;;;0.80;0.57;;;;;;;-3.84;82.47;100870.84;5073922;28;20056;-76
2022/03/31 04:31:29;;;;;;;1.77;0.80;;;;;;;-3.63;82.52;100907.13;5094153;28;20454;-77
2022/03/31 04:33:55;;;;;;;2.50;0.70;;;;;;;-3.81;83.77;100882.91;5089584;28;20034;-76
2022/03/31 04:36:20;;;;;;;2.75;0.82;;;;;;;-3.52;85.24;100923.00;5088442;28;20095;-76
2022/03/31 04:38:46;;;;;;;1.52;0.60;;;;;;;-3.41;85.31;100923.13;5087395;28;20619;-77
2022/03/31 04:41:11;;;;;;;1.88;0.60;;;;;;;-3.40;85.00;100914.25;5087763;28;20025;-77
2022/03/31 04:43:36;;;;;;;3.35;0.70;;;;;;;-3.35;84.92;100909.50;5070379;28;20025;-77
2022/03/31 04:46:02;;;;;;;3.92;0.68;;;;;;;-3.19;84.76;100929.50;5088930;28;20107;-77
2022/03/31 04:48:29;;;;;;;1.45;0.60;;;;;;;-3.15;83.90;100930.94;5093711;28;20415;-77
2022/03/31 04:50:54;;;;;;;2.28;0.85;;;;;;;-3.16;83.36;100927.50;5092217;28;20037;-77
2022/03/31 04:53:20;;;;;;;4.88;0.75;;;;;;;-3.37;83.08;100919.31;5075515;28;20406;-76
2022/03/31 04:55:45;;;;;;;4.78;1.48;;;;;;;-3.31;82.83;100939.94;5096225;28;20085;-77
2022/03/31 04:58:11;;;;;;;4.75;1.17;;;;;;;-3.07;81.72;100912.84;5095198;28;20092;-77
2022/03/31 05:00:37;;;;;;;2.50;0.90;;;;;;;-2.19;78.83;100926.59;5079674;28;20371;-77
2022/03/31 05:03:02;;;;;;;2.65;1.15;;;;;;;-1.45;77.02;100944.81;5088654;28;20103;-77
2022/03/31 05:05:28;;;;;;;2.55;0.95;;;;;;;-1.10;75.13;100926.19;5072955;28;20030;-77
2022/03/31 05:07:53;;;;;;;2.72;0.82;;;;;;;-0.55;74.18;100921.81;5085933;28;20447;-77
2022/03/31 05:10:19;;;;;;;6.30;0.93;;;;;;;-0.17;71.96;100923.09;5071374;28;20020;-77
2022/03/31 05:12:44;;;;;;;2.85;0.80;;;;;;;0.30;70.68;100934.19;5087553;28;20016;-77
2022/03/31 05:15:11;;;;;;;2.40;0.80;;;;;;;0.62;68.70;100942.00;5084881;28;20113;-77
2022/03/31 05:17:37;;;;;;;1.60;0.57;;;;;;;0.85;67.58;100940.03;5084787;28;20020;-77
2022/03/31 05:20:11;;;;;;;2.40;0.73;;;;;;;1.31;66.01;100941.31;5088960;28;20024;-77
2022/03/31 05:22:38;;;;;;;1.73;0.80;;;;;;;1.69;64.07;100942.38;5087764;28;20024;-77
2022/03/31 05:25:07;;;;;;;3.45;0.90;;;;;;;2.03;62.74;100947.28;5083151;28;20039;-76
2022/03/31 05:27:32;;;;;;;2.03;0.88;;;;;;;2.33;61.15;100948.91;5090980;28;20040;-77
2022/03/31 05:29:58;;;;;;;2.25;0.60;;;;;;;2.83;59.17;100954.81;5096302;28;20039;-77
2022/03/31 05:32:24;;;;;;;2.40;0.70;;;;;;;2.84;58.56;100931.72;5077078;28;20357;-77
2022/03/31 05:34:50;;;;;;;3.83;0.77;;;;;;;1.57;61.80;100935.50;5087900;28;20031;-77
2022/03/31 05:37:16;;;;;;;2.80;0.82;;;;;;;0.72;66.16;100960.59;5087244;28;20039;-77
2022/03/31 05:39:41;;;;;;;1.50;0.70;;;;;;;0.24;68.67;100966.47;5092872;28;20024;-77
2022/03/31 05:42:07;;;;;;;3.70;0.77;;;;;;;-0.05;70.99;100964.41;5092603;28;20472;-76
2022/03/31 05:44:33;;;;;;;6.63;0.95;;;;;;;-0.35;72.39;100957.19;5075696;28;20479;-77
2022/03/31 05:46:58;;;;;;;4.30;0.80;;;;;;;-0.48;73.36;100962.63;5111806;28;20028;-76
2022/03/31 05:49:24;;;;;;;2.53;0.70;;;;;;;-0.55;73.68;100960.59;5092227;28;20082;-77
2022/03/31 05:51:51;;;;;;;4.05;0.80;;;;;;;-0.58;74.33;100974.91;5092167;28;20032;-77
2022/03/31 05:54:16;;;;;;;2.25;1.00;;;;;;;-0.60;74.38;100975.97;5092121;28;20101;-76
2022/03/31 05:56:43;;;;;;;7.85;0.80;;;;;;;-0.73;74.48;100957.63;5072692;28;20052;-77
2022/03/31 05:59:08;;;;;;;4.45;1.00;;;;;;;-0.59;74.59;100985.63;5094164;28;20031;-76
2022/03/31 06:01:34;;;;;;;4.45;0.80;;;;;;;-0.55;74.37;100979.94;5092375;28;20106;-77
2022/03/31 06:03:59;;;;;;;6.22;1.10;;;;;;;-0.56;74.70;100980.91;5094281;28;20100;-76
2022/03/31 06:06:24;;;;;;;3.40;1.00;;;;;;;-0.58;74.60;100992.56;5091355;28;20025;-76
2022/03/31 06:08:50;;;;;;;6.03;1.23;;;;;;;-0.68;74.17;100966.03;5073765;28;20024;-76
2022/03/31 06:11:15;;;;;;;3.00;0.82;;;;;;;-0.43;74.12;100993.13;5093597;28;20035;-76
2022/03/31 06:13:41;;;;;;;1.77;1.00;;;;;;;-0.40;73.92;100999.00;5092918;28;20032;-76
2022/03/31 06:16:06;;;;;;;2.85;1.08;;;;;;;-0.28;73.30;100994.53;5097149;28;20032;-76
2022/03/31 06:18:32;;;;;;;3.00;0.80;;;;;;;-0.12;72.64;100994.16;5090969;28;20027;-76
2022/03/31 06:20:58;;;;;;;2.55;0.90;;;;;;;-0.03;72.20;100985.47;5075634;28;20025;-76
2022/03/31 06:23:23;;;;;;;2.67;1.38;;;;;;;0.18;71.58;101002.19;5072373;28;20036;-76
2022/03/31 06:25:50;;;;;;;4.22;1.05;;;;;;;0.14;71.06;100978.78;5072828;28;20111;-76
2022/03/31 06:28:16;;;;;;;2.25;0.77;;;;;;;0.42;70.70;101009.06;5092799;28;20028;-76
2022/03/31 06:30:42;;;;;;;5.55;1.30;;;;;;;0.42;71.06;101009.91;5091212;28;20477;-77
2022/03/31 06:33:08;;;;;;;2.75;0.90;;;;;;;0.19;70.97;100960.69;5093676;28;20028;-77
2022/03/31 06:35:34;;;;;;;5.70;0.98;;;;;;;0.55;70.72;101008.88;5090399;28;20030;-77
2022/03/31 06:38:00;;;;;;;4.97;1.35;;;;;;;0.61;70.56;100992.47;5092860;28;20031;-76
2022/03/31 06:40:25;;;;;;;5.72;1.02;;;;;;;0.40;69.95;100958.06;5072450;28;20362;-77
2022/03/31 06:42:51;;;;;;;3.50;0.80;;;;;;;0.74;68.67;100986.97;5094289;28;20138;-76
2022/03/31 06:45:16;;;;;;;7.57;0.98;;;;;;;0.99;67.78;101013.03;5093176;28;20048;-78
2022/03/31 06:47:44;;;;;;;6.43;1.13;;;;;;;1.16;67.76;101015.09;5091377;28;20461;-77
2022/03/31 06:50:10;;;;;;;3.90;0.90;;;;;;;1.24;66.63;101011.75;5093452;28;20020;-77
2022/03/31 06:52:36;;;;;;;2.88;0.80;;;;;;;1.37;66.14;101008.88;5072677;28;20090;-77
2022/03/31 06:55:02;;;;;;;1.70;0.80;;;;;;;1.16;65.65;100964.72;5092035;28;20032;-77
2022/03/31 06:57:27;;;;;;;2.75;0.88;;;;;;;1.54;65.54;101012.69;5093993;28;20133;-76
2022/03/31 06:59:53;;;;;;;6.35;0.90;;;;;;;1.66;65.17;101016.91;5090733;28;20055;-77
2022/03/31 07:02:18;;;;;;;3.55;0.60;;;;;;;1.46;64.65;100989.50;5075641;28;20043;-77
2022/03/31 07:04:43;;;;;;;4.80;1.00;;;;;;;1.54;64.27;100991.47;5071100;28;20446;-77
2022/03/31 07:07:09;;;;;;;1.70;0.57;;;;;;;1.81;63.95;101017.34;5073461;28;20029;-78
2022/03/31 07:09:34;;;;;;;4.35;0.80;;;;;;;1.66;63.11;101011.63;5090390;28;20029;-78
2022/03/31 07:12:00;;;;;;;1.95;0.80;;;;;;;1.88;63.43;101021.13;5092062;28;20107;-77
2022/03/31 07:14:25;;;;;;;2.38;0.80;;;;;;;1.88;63.44;100995.44;5092407;28;20048;-77
2022/03/31 07:16:51;;;;;;;5.18;0.80;;;;;;;1.81;62.46;100991.66;5053842;28;20024;-77
2022/03/31 07:19:17;;;;;;;4.10;0.95;;;;;;;2.20;62.68;101020.06;5089627;28;20033;-77
2022/03/31 07:21:42;;;;;;;4.55;0.80;;;;;;;1.91;62.36;100938.59;5076921;28;20035;-77
2022/03/31 07:24:07;;;;;;;5.13;0.73;;;;;;;2.31;61.15;101023.41;5096762;28;20111;-76
2022/03/31 07:26:33;;;;;;;5.03;0.73;;;;;;;2.30;61.20;100994.34;5092344;28;20032;-76
2022/03/31 07:28:58;;;;;;;3.80;0.98;;;;;;;2.28;60.96;101005.09;5071582;28;20037;-77
2022/03/31 07:31:26;;;;;;;5.88;0.80;;;;;;;2.22;60.45;100999.50;5090176;28;20368;-77
2022/03/31 07:33:52;;;;;;;2.92;0.90;;;;;;;2.30;59.87;100989.88;5091360;28;20086;-77
2022/03/31 07:36:18;;;;;;;3.92;0.77;;;;;;;2.71;59.73;101019.72;5091933;28;20036;-77
2022/03/31 07:38:45;;;;;;;1.95;0.60;;;;;;;2.64;58.85;101021.28;5073537;28;20036;-78
2022/03/31 07:41:12;;;;;;;2.88;0.80;;;;;;;2.68;59.08;100996.13;5087888;28;20029;-78
2022/03/31 07:43:38;;;;;;;1.42;0.70;;;;;;;2.85;58.65;101009.63;5094360;28;20031;-78
2022/03/31 07:46:05;;;;;;;1.98;0.80;;;;;;;3.04;57.99;101020.19;5095059;28;20035;-78
2022/03/31 07:48:31;;;;;;;10.57;1.02;;;;;;;3.23;57.40;101012.16;5093212;28;20501;-77
2022/03/31 07:50:58;;;;;;;2.83;0.80;;;;;;;3.16;56.88;101013.72;5096359;28;20028;-78
2022/03/31 07:53:26;;;;;;;2.33;0.50;;;;;;;3.30;55.89;101020.38;5096349;28;20133;-77
2022/03/31 07:55:52;;;;;;;2.53;0.65;;;;;;;3.38;56.16;101011.66;5093501;28;20024;-77
2022/03/31 07:58:17;;;;;;;1.55;0.60;;;;;;;3.68;55.56;101030.00;5096373;28;20047;-77
2022/03/31 08:00:43;;;;;;;1.85;0.43;;;;;;;3.55;55.23;101004.75;5093440;28;20468;-77
2022/03/31 08:03:08;;;;;;;4.43;0.73;;;;;;;3.57;54.93;101016.88;5096181;28;20085;-77
2022/03/31 08:05:37;;;;;;;3.28;0.93;;;;;;;3.50;53.03;101024.63;5092333;28;20085;-78
2022/03/31 08:08:03;;;;;;;1.50;0.55;;;;;;;3.50;53.57;101010.50;5095643;28;20024;-77
2022/03/31 08:10:29;;;;;;;2.08;0.70;;;;;;;3.63;52.24;101018.13;5092622;28;20035;-77
2022/03/31 08:12:54;;;;;;;2.85;0.75;;;;;;;3.55;51.91;101026.88;5095449;28;20020;-77
2022/03/31 08:15:22;;;;;;;1.05;0.73;;;;;;;3.40;51.47;101001.72;5093997;28;20133;-77
2022/03/31 08:17:48;;;;;;;1.60;0.43;;;;;;;3.68;51.26;101014.03;5096182;28;20020;-77
2022/03/31 08:20:15;;;;;;;2.33;0.50;;;;;;;3.33;50.53;100977.53;5093339;28;20449;-77
2022/03/31 08:22:41;;;;;;;1.60;0.60;;;;;;;3.64;50.11;101019.78;5077328;28;20028;-77
2022/03/31 08:25:08;;;;;;;1.80;0.60;;;;;;;3.81;50.49;101028.81;5095593;28;20651;-77
2022/03/31 08:27:35;;;;;;;1.00;0.52;;;;;;;3.89;50.16;101034.22;5096162;28;20077;-76
2022/03/31 08:30:02;;;;;;;2.20;0.60;;;;;;;3.93;50.56;101012.47;5096885;28;20445;-76
2022/03/31 08:32:28;;;;;;;2.22;0.70;;;;;;;3.97;52.17;101027.19;5095637;28;20467;-76
2022/03/31 08:34:53;;;;;;;2.47;0.70;;;;;;;3.82;51.80;101022.50;5056848;28;20123;-76
2022/03/31 08:37:18;;;;;;;4.78;0.73;;;;;;;3.73;53.25;101017.06;5074297;28;20048;-76
2022/03/31 08:39:44;;;;;;;3.05;0.85;;;;;;;3.79;53.50;101033.44;5091131;28;20032;-76
2022/03/31 08:42:10;;;;;;;1.08;0.50;;;;;;;3.32;54.62;100967.06;5085154;28;20020;-75
2022/03/31 08:44:36;;;;;;;1.58;0.47;;;;;;;3.72;54.03;101030.56;5077493;28;20055;-76
2022/03/31 08:47:02;;;;;;;1.73;0.70;;;;;;;3.67;55.30;101038.97;5092546;28;20024;-76
2022/03/31 08:49:31;;;;;;;2.85;0.70;;;;;;;3.66;55.65;101028.47;5077628;28;20024;-76
2022/03/31 08:51:56;;;;;;;4.53;0.57;;;;;;;3.61;54.51;101041.38;5094273;28;20462;-76
2022/03/31 08:54:22;;;;;;;3.03;0.70;;;;;;;3.57;55.56;101038.19;5095895;28;20115;-76
2022/03/31 08:56:47;;;;;;;1.50;0.60;;;;;;;3.47;56.33;101021.44;5093735;28;20026;-77
2022/03/31 08:59:13;;;;;;;2.25;0.60;;;;;;;3.62;55.05;101040.41;5093491;28;20476;-77
2022/03/31 09:01:39;;;;;;;1.40;0.43;;;;;;;3.58;53.59;101029.22;5094810;28;20032;-77
2022/03/31 09:04:06;;;;;;;2.13;0.68;;;;;;;3.71;52.54;101044.84;5110766;28;20016;-76
2022/03/31 09:06:31;;;;;;;3.05;0.60;;;;;;;3.69;52.95;101042.31;5100092;28;20397;-76
2022/03/31 09:08:59;;;;;;;3.15;0.82;;;;;;;3.56;52.67;101022.38;5102005;28;20032;-76
2022/03/31 09:11:33;;;;;;;1.23;0.57;;;;;;;3.82;53.37;101047.31;5075148;28;20111;-77
2022/03/31 09:14:02;;;;;;;4.10;0.60;;;;;;;3.80;52.43;101040.44;5092502;28;20358;-77
2022/03/31 09:16:35;;;;;;;4.72;0.90;;;;;;;3.83;52.52;101043.63;5081434;28;20020;-77
2022/03/31 09:19:15;;;;;;;1.10;0.60;;;;;;;3.70;52.96;101021.88;5094134;28;20020;-77
2022/03/31 09:21:53;;;;;;;3.38;0.65;;;;;;;3.81;53.43;101053.63;5094177;28;20031;-77
2022/03/31 09:24:21;;;;;;;0.68;0.40;;;;;;;3.82;52.38;101035.81;5088923;28;20020;-77
2022/03/31 09:26:49;;;;;;;1.58;0.57;;;;;;;3.85;53.08;101047.00;5083434;28;20368;-77
2022/03/31 09:29:15;;;;;;;2.78;0.70;;;;;;;3.87;54.50;101047.66;5088464;28;20638;-77
2022/03/31 09:31:41;;;;;;;1.23;0.50;;;;;;;3.96;54.05;101051.28;5091605;28;20045;-77
2022/03/31 09:34:08;;;;;;;1.88;0.63;;;;;;;4.08;53.18;101055.41;5082358;28;20437;-77
2022/03/31 09:36:36;;;;;;;1.75;0.50;;;;;;;4.10;53.14;101050.75;5077321;28;20040;-77
2022/03/31 09:39:13;;;;;;;3.35;0.50;;;;;;;3.91;54.40;101018.94;5094365;28;20028;-76
2022/03/31 09:41:40;;;;;;;1.25;0.60;;;;;;;4.09;55.46;101050.91;5076324;28;20017;-77
2022/03/31 09:44:15;;;;;;;3.35;0.60;;;;;;;4.08;55.56;101046.59;5081432;28;20098;-77
2022/03/31 09:46:42;;;;;;;1.42;0.63;;;;;;;4.16;56.11;101050.16;5079923;28;20142;-76
2022/03/31 09:49:17;;;;;;;2.22;0.50;;;;;;;4.21;55.25;101049.72;5095554;28;20058;-76
2022/03/31 09:51:50;;;;;;;3.33;0.63;;;;;;;4.33;54.98;101058.28;5095847;28;20028;-76
2022/03/31 09:54:18;;;;;;;1.55;0.38;;;;;;;4.34;53.00;101044.84;5091959;28;20028;-76
2022/03/31 09:56:43;;;;;;;2.72;0.52;;;;;;;4.46;53.30;101048.09;5095338;28;20032;-76
2022/03/31 09:59:11;;;;;;;2.42;0.40;;;;;;;4.56;51.25;101046.19;5091656;28;20091;-76
2022/03/31 10:01:38;;;;;;;3.00;0.63;;;;;;;4.63;51.05;101025.06;5087625;28;20052;-76
2022/03/31 10:04:08;;;;;;;2.00;0.60;;;;;;;4.65;50.43;101050.59;5087696;28;20063;-78
2022/03/31 10:06:36;;;;;;;2.15;0.43;;;;;;;4.52;51.29;101058.13;5082108;28;20036;-76
2022/03/31 10:09:04;;;;;;;1.02;0.40;;;;;;;4.26;52.16;101033.25;5089019;28;20517;-76
2022/03/31 10:11:38;;;;;;;1.20;0.50;;;;;;;4.05;52.77;101021.09;5082167;28;20071;-77
2022/03/31 10:14:30;;;;;;;1.27;0.38;;;;;;;4.37;52.93;101060.53;5077449;28;20077;-75
2022/03/31 10:17:16;;;;;;;2.70;0.30;;;;;;;4.58;52.37;101051.38;5077269;28;20043;-77
2022/03/31 10:19:44;;;;;;;0.88;0.35;;;;;;;4.75;51.69;101047.00;5076153;28;20366;-76
2022/03/31 10:24:57;;;;;;;1.75;0.30;;;;;;;4.67;51.92;101047.78;5092271;28;20116;-76
2022/03/31 10:27:28;;;;;;;7.22;0.50;;;;;;;4.85;52.19;101042.41;5093407;28;20051;-77
2022/03/31 10:30:07;;;;;;;1.25;0.35;;;;;;;4.87;51.72;101043.09;5093982;28;20111;-77
2022/03/31 10:32:33;;;;;;;1.23;0.38;;;;;;;4.85;52.81;101051.25;5090970;28;20030;-77
2022/03/31 10:34:59;;;;;;;1.85;0.65;;;;;;;4.84;51.33;101043.41;5071071;28;20446;-76
2022/03/31 10:37:36;;;;;;;1.50;0.30;;;;;;;4.79;50.66;101043.03;5073827;28;20028;-77
2022/03/31 10:40:10;;;;;;;1.55;0.40;;;;;;;4.96;50.94;101044.81;5080466;28;20020;-77
2022/03/31 10:42:37;;;;;;;2.10;0.35;;;;;;;4.86;50.75;101038.75;5093720;28;20093;-77
2022/03/31 10:45:09;;;;;;;1.08;0.32;;;;;;;4.77;51.00;101034.34;5091704;28;20147;-76
2022/03/31 10:47:35;;;;;;;1.42;0.50;;;;;;;4.61;52.76;101033.25;5094082;28;20081;-77
2022/03/31 10:50:01;;;;;;;0.82;0.43;;;;;;;4.63;53.85;101041.06;5084382;28;20027;-77
2022/03/31 10:52:28;;;;;;;1.85;0.47;;;;;;;4.58;52.81;101028.22;5093752;28;20037;-77
2022/03/31 10:55:05;;;;;;;2.58;0.40;;;;;;;4.70;53.39;101019.00;5075318;28;20127;-76
2022/03/31 10:57:38;;;;;;;1.02;0.40;;;;;;;4.84;52.82;101033.56;5094452;28;20035;-77
2022/03/31 11:00:07;;;;;;;1.30;0.40;;;;;;;4.90;52.89;101045.44;5090576;28;20048;-76
2022/03/31 11:02:40;;;;;;;0.85;0.40;;;;;;;4.76;51.88;101011.34;5087823;28;20058;-75
2022/03/31 11:05:06;;;;;;;1.00;0.32;;;;;;;4.70;51.24;101026.13;5092697;28;20347;-75
2022/03/31 11:07:31;;;;;;;0.70;0.30;;;;;;;4.47;52.08;100978.69;5096585;28;20069;-77
2022/03/31 11:10:00;;;;;;;1.73;0.57;;;;;;;4.69;52.31;101021.78;5092694;28;20025;-76
2022/03/31 11:12:28;;;;;;;1.63;0.40;;;;;;;4.77;51.63;101042.34;5079817;28;20075;-75
2022/03/31 11:15:03;;;;;;;0.70;0.30;;;;;;;4.58;52.63;101046.88;5086798;28;20142;-75
2022/03/31 11:17:29;;;;;;;0.90;0.35;;;;;;;4.43;53.85;101029.75;5093199;28;20107;-75
2022/03/31 11:20:03;;;;;;;1.40;0.50;;;;;;;4.39;53.94;101041.72;5082432;28;20048;-75
2022/03/31 11:22:30;;;;;;;2.15;0.47;;;;;;;4.42;54.19;101038.75;5086203;28;20028;-75
2022/03/31 11:25:17;;;;;;;2.15;0.50;;;;;;;4.63;55.33;101030.41;5072849;28;20647;-75
2022/03/31 11:27:44;;;;;;;1.17;0.32;;;;;;;4.79;54.38;101037.69;5082870;28;20024;-75
2022/03/31 11:30:15;;;;;;;1.77;0.40;;;;;;;4.77;52.67;101018.34;5095208;28;20364;-75
2022/03/31 11:32:42;;;;;;;0.98;0.40;;;;;;;4.83;55.01;101031.88;5087725;28;20103;-75
2022/03/31 11:35:20;;;;;;;2.22;0.85;;;;;;;4.84;55.89;101028.25;5083003;28;20028;-76